sensor_id;sensor_type;location;lat;lon;timestamp;pressure;altitude;pressure_sealevel;temperature;humidity
72677;BME280;60755;51.374;10.662;2022-10-16T00:01:41;96898.31;;;12.97;100.00
72677;BME280;60755;51.374;10.662;2022-10-16T00:04:08;96887.75;;;12.86;100.00
72677;BME280;60755;51.374;10.662;2022-10-16T00:06:35;96891.94;;;12.82;100.00
72677;BME280;60755;51.374;10.662;2022-10-16T00:09:02;96897.72;;;12.79;100.00
72677;BME280;60755;51.374;10.662;2022-10-16T00:11:32;96901.94;;;12.75;100.00
72677;BME280;60755;51.374;10.662;2022-10-16T00:14:03;96895.63;;;12.81;100.00
72677;BME280;60755;51.374;10.662;2022-10-16T00:16:31;96903.81;;;12.90;100.00
72677;BME280;60755;51.374;10.662;2022-10-16T00:18:58;96913.94;;;13.13;100.00
72677;BME280;60755;51.374;10.662;2022-10-16T00:21:26;96914.25;;;13.17;100.00
72677;BME280;60755;51.374;10.662;2022-10-16T00:23:55;96917.47;;;13.24;100.00
72677;BME280;60755;51.374;10.662;2022-10-16T00:26:22;96912.97;;;13.30;100.00
72677;BME280;60755;51.374;10.662;2022-10-16T00:28:51;96917.75;;;13.33;100.00
72677;BME280;60755;51.374;10.662;2022-10-16T00:31:19;96919.09;;;13.40;100.00
72677;BME280;60755;51.374;10.662;2022-10-16T00:33:46;96917.78;;;13.48;100.00
72677;BME280;60755;51.374;10.662;2022-10-16T00:36:16;96916.44;;;13.46;100.00
72677;BME280;60755;51.374;10.662;2022-10-16T00:38:43;96920.69;;;13.52;100.00
72677;BME280;60755;51.374;10.662;2022-10-16T00:41:13;96924.66;;;13.49;100.00
72677;BME280;60755;51.374;10.662;2022-10-16T00:43:42;96928.63;;;13.52;100.00
72677;BME280;60755;51.374;10.662;2022-10-16T00:46:15;96928.91;;;13.65;100.00
72677;BME280;60755;51.374;10.662;2022-10-16T00:48:43;96928.63;;;13.57;100.00
72677;BME280;60755;51.374;10.662;2022-10-16T00:51:11;96924.38;;;13.46;100.00
72677;BME280;60755;51.374;10.662;2022-10-16T00:53:38;96920.38;;;13.38;100.00
72677;BME280;60755;51.374;10.662;2022-10-16T00:56:05;96909.31;;;13.36;100.00
72677;BME280;60755;51.374;10.662;2022-10-16T00:58:32;96914.81;;;13.29;100.00
72677;BME280;60755;51.374;10.662;2022-10-16T01:00:58;96921.13;;;13.23;100.00
72677;BME280;60755;51.374;10.662;2022-10-16T01:03:28;96928.53;;;13.26;100.00
72677;BME280;60755;51.374;10.662;2022-10-16T01:06:07;96927.00;;;13.40;100.00
72677;BME280;60755;51.374;10.662;2022-10-16T01:08:45;96927.53;;;13.42;100.00
72677;BME280;60755;51.374;10.662;2022-10-16T01:11:21;96930.97;;;13.43;100.00
72677;BME280;60755;51.374;10.662;2022-10-16T01:13:53;96927.78;;;13.46;100.00
72677;BME280;60755;51.374;10.662;2022-10-16T01:16:25;96924.38;;;13.40;100.00
72677;BME280;60755;51.374;10.662;2022-10-16T01:18:59;96929.13;;;13.43;100.00
72677;BME280;60755;51.374;10.662;2022-10-16T01:21:32;96914.88;;;13.44;100.00
72677;BME280;60755;51.374;10.662;2022-10-16T01:24:05;96920.38;;;13.38;100.00
72677;BME280;60755;51.374;10.662;2022-10-16T01:26:44;96930.94;;;13.33;100.00
72677;BME280;60755;51.374;10.662;2022-10-16T01:29:18;96932.25;;;13.35;100.00
72677;BME280;60755;51.374;10.662;2022-10-16T01:31:50;96944.97;;;13.49;100.00
72677;BME280;60755;51.374;10.662;2022-10-16T01:34:25;96930.69;;;13.44;100.00
72677;BME280;60755;51.374;10.662;2022-10-16T01:36:56;96937.56;;;13.46;100.00
72677;BME280;60755;51.374;10.662;2022-10-16T01:39:28;96934.47;;;13.64;100.00
72677;BME280;60755;51.374;10.662;2022-10-16T01:42:00;96933.88;;;13.52;100.00
72677;BME280;60755;51.374;10.662;2022-10-16T01:44:32;96937.03;;;13.43;100.00
72677;BME280;60755;51.374;10.662;2022-10-16T01:47:01;96944.97;;;13.54;100.00
72677;BME280;60755;51.374;10.662;2022-10-16T01:49:31;96953.97;;;13.63;100.00
72677;BME280;60755;51.374;10.662;2022-10-16T01:52:02;96956.63;;;13.58;100.00
72677;BME280;60755;51.374;10.662;2022-10-16T01:54:33;96944.72;;;13.60;100.00
72677;BME280;60755;51.374;10.662;2022-10-16T01:57:01;96934.47;;;13.64;100.00
72677;BME280;60755;51.374;10.662;2022-10-16T01:59:33;96931.78;;;13.54;100.00
72677;BME280;60755;51.374;10.662;2022-10-16T02:02:06;96937.88;;;13.69;100.00
72677;BME280;60755;51.374;10.662;2022-10-16T02:04:36;96932.84;;;13.63;100.00
72677;BME280;60755;51.374;10.662;2022-10-16T02:07:04;96938.41;;;13.56;100.00
72677;BME280;60755;51.374;10.662;2022-10-16T02:09:33;96935.47;;;13.53;100.00
72677;BME280;60755;51.374;10.662;2022-10-16T02:12:05;96942.06;;;13.45;100.00
72677;BME280;60755;51.374;10.662;2022-10-16T02:14:34;96937.03;;;13.43;100.00
72677;BME280;60755;51.374;10.662;2022-10-16T02:17:11;96923.03;;;13.33;100.00
72677;BME280;60755;51.374;10.662;2022-10-16T02:19:38;96944.63;;;13.30;100.00
72677;BME280;60755;51.374;10.662;2022-10-16T02:22:07;96945.91;;;13.17;100.00
72677;BME280;60755;51.374;10.662;2022-10-16T02:24:38;96948.03;;;13.20;100.00
72677;BME280;60755;51.374;10.662;2022-10-16T02:27:09;96962.06;;;13.31;100.00
72677;BME280;60755;51.374;10.662;2022-10-16T02:29:40;96960.78;;;13.43;100.00
72677;BME280;60755;51.374;10.662;2022-10-16T02:32:11;96961.88;;;13.48;100.00
72677;BME280;60755;51.374;10.662;2022-10-16T02:34:39;96955.53;;;13.54;100.00
72677;BME280;60755;51.374;10.662;2022-10-16T02:37:07;96949.22;;;13.50;100.00
72677;BME280;60755;51.374;10.662;2022-10-16T02:39:35;96950.03;;;13.65;100.00
72677;BME280;60755;51.374;10.662;2022-10-16T02:42:03;96955.59;;;13.64;100.00
72677;BME280;60755;51.374;10.662;2022-10-16T02:44:29;96952.38;;;13.62;100.00
72677;BME280;60755;51.374;10.662;2022-10-16T02:46:58;96968.75;;;13.59;100.00
72677;BME280;60755;51.374;10.662;2022-10-16T02:49:24;96964.53;;;13.63;100.00
72677;BME280;60755;51.374;10.662;2022-10-16T02:51:50;96964.81;;;13.66;100.00
72677;BME280;60755;51.374;10.662;2022-10-16T02:54:17;96960.34;;;13.72;100.00
72677;BME280;60755;51.374;10.662;2022-10-16T02:56:43;96954.00;;;13.68;100.00
72677;BME280;60755;51.374;10.662;2022-10-16T02:59:10;96953.47;;;13.66;100.00
72677;BME280;60755;51.374;10.662;2022-10-16T03:01:36;96945.53;;;13.71;100.00
72677;BME280;60755;51.374;10.662;2022-10-16T03:04:04;96936.56;;;13.77;100.00
72677;BME280;60755;51.374;10.662;2022-10-16T03:06:31;96944.00;;;13.90;100.00
72677;BME280;60755;51.374;10.662;2022-10-16T03:08:57;96948.72;;;13.73;100.00
72677;BME280;60755;51.374;10.662;2022-10-16T03:11:24;96949.47;;;13.63;100.00
72677;BME280;60755;51.374;10.662;2022-10-16T03:13:51;96964.81;;;13.61;100.00
72677;BME280;60755;51.374;10.662;2022-10-16T03:16:18;96963.47;;;13.59;100.00
72677;BME280;60755;51.374;10.662;2022-10-16T03:18:47;96976.41;;;13.60;100.00
72677;BME280;60755;51.374;10.662;2022-10-16T03:21:15;96962.91;;;13.47;100.00
72677;BME280;60755;51.374;10.662;2022-10-16T03:23:42;96958.19;;;13.59;100.00
72677;BME280;60755;51.374;10.662;2022-10-16T03:26:08;96967.19;;;13.58;100.00
72677;BME280;60755;51.374;10.662;2022-10-16T03:28:35;96966.66;;;13.61;100.00
72677;BME280;60755;51.374;10.662;2022-10-16T03:31:01;96959.25;;;13.58;100.00
72677;BME280;60755;51.374;10.662;2022-10-16T03:33:28;96957.41;;;13.58;100.00
72677;BME280;60755;51.374;10.662;2022-10-16T03:35:54;96967.41;;;13.46;100.00
72677;BME280;60755;51.374;10.662;2022-10-16T03:38:22;96980.84;;;13.39;100.00
72677;BME280;60755;51.374;10.662;2022-10-16T03:40:49;96975.06;;;13.42;100.00
72677;BME280;60755;51.374;10.662;2022-10-16T03:43:15;96977.38;;;13.29;100.00
72677;BME280;60755;51.374;10.662;2022-10-16T03:45:42;96976.53;;;13.23;100.00
72677;BME280;60755;51.374;10.662;2022-10-16T03:48:09;96981.59;;;13.25;100.00
72677;BME280;60755;51.374;10.662;2022-10-16T03:50:35;96985.03;;;13.25;100.00
72677;BME280;60755;51.374;10.662;2022-10-16T03:53:02;96968.19;;;13.41;100.00
72677;BME280;60755;51.374;10.662;2022-10-16T03:55:30;96982.38;;;13.30;100.00
72677;BME280;60755;51.374;10.662;2022-10-16T03:57:56;96993.50;;;13.37;100.00
72677;BME280;60755;51.374;10.662;2022-10-16T04:00:23;96995.09;;;13.33;100.00
72677;BME280;60755;51.374;10.662;2022-10-16T04:02:49;96990.34;;;13.35;100.00
72677;BME280;60755;51.374;10.662;2022-10-16T04:05:16;96997.72;;;13.38;100.00
72677;BME280;60755;51.374;10.662;2022-10-16T04:07:42;96993.50;;;13.37;100.00
72677;BME280;60755;51.374;10.662;2022-10-16T04:10:09;97002.44;;;13.31;100.00
72677;BME280;60755;51.374;10.662;2022-10-16T04:12:37;97012.47;;;13.29;100.00
72677;BME280;60755;51.374;10.662;2022-10-16T04:15:04;97018.81;;;13.28;100.00
72677;BME280;60755;51.374;10.662;2022-10-16T04:17:30;97024.59;;;13.30;100.00
72677;BME280;60755;51.374;10.662;2022-10-16T04:19:57;97031.50;;;13.36;100.00
72677;BME280;60755;51.374;10.662;2022-10-16T04:22:23;97018.84;;;13.33;100.00
72677;BME280;60755;51.374;10.662;2022-10-16T04:24:50;97019.84;;;13.27;100.00
72677;BME280;60755;51.374;10.662;2022-10-16T04:27:16;97008.78;;;13.25;100.00
72677;BME280;60755;51.374;10.662;2022-10-16T04:29:44;97006.59;;;13.17;100.00
72677;BME280;60755;51.374;10.662;2022-10-16T04:32:10;97012.63;;;13.07;100.00
72677;BME280;60755;51.374;10.662;2022-10-16T04:34:39;97022.03;;;12.98;100.00
72677;BME280;60755;51.374;10.662;2022-10-16T04:37:06;97017.56;;;12.99;100.00
72677;BME280;60755;51.374;10.662;2022-10-16T04:39:32;97027.03;;;12.95;100.00
72677;BME280;60755;51.374;10.662;2022-10-16T04:41:58;97039.69;;;12.93;100.00
72677;BME280;60755;51.374;10.662;2022-10-16T04:44:25;97041.53;;;12.92;100.00
72677;BME280;60755;51.374;10.662;2022-10-16T04:46:53;97035.44;;;12.86;100.00
72677;BME280;60755;51.374;10.662;2022-10-16T04:49:19;97028.00;;;12.78;100.00
72677;BME280;60755;51.374;10.662;2022-10-16T04:51:46;97038.81;;;12.82;100.00
72677;BME280;60755;51.374;10.662;2022-10-16T04:54:12;97039.31;;;12.79;100.00
72677;BME280;60755;51.374;10.662;2022-10-16T04:56:39;97041.91;;;12.74;100.00
72677;BME280;60755;51.374;10.662;2022-10-16T04:59:12;97042.75;;;12.79;100.00
72677;BME280;60755;51.374;10.662;2022-10-16T05:01:38;97044.78;;;12.67;100.00
72677;BME280;60755;51.374;10.662;2022-10-16T05:04:06;97033.09;;;12.58;100.00
72677;BME280;60755;51.374;10.662;2022-10-16T05:06:33;97030.94;;;12.50;100.00
72677;BME280;60755;51.374;10.662;2022-10-16T05:08:59;97035.97;;;12.51;100.00
72677;BME280;60755;51.374;10.662;2022-10-16T05:11:26;97034.47;;;12.66;100.00
72677;BME280;60755;51.374;10.662;2022-10-16T05:13:52;97045.34;;;12.69;100.00
72677;BME280;60755;51.374;10.662;2022-10-16T05:16:19;97044.81;;;12.72;100.00
72677;BME280;60755;51.374;10.662;2022-10-16T05:18:45;97053.53;;;12.73;100.00
72677;BME280;60755;51.374;10.662;2022-10-16T05:21:13;97048.09;;;12.84;100.00
72677;BME280;60755;51.374;10.662;2022-10-16T05:23:39;97044.88;;;12.77;100.00
72677;BME280;60755;51.374;10.662;2022-10-16T05:26:06;97051.78;;;12.83;100.00
72677;BME280;60755;51.374;10.662;2022-10-16T05:28:32;97050.66;;;12.79;100.00
72677;BME280;60755;51.374;10.662;2022-10-16T05:30:59;97041.22;;;12.83;100.00
72677;BME280;60755;51.374;10.662;2022-10-16T05:33:29;97043.38;;;12.92;100.00
72677;BME280;60755;51.374;10.662;2022-10-16T05:35:56;97043.38;;;12.92;100.00
72677;BME280;60755;51.374;10.662;2022-10-16T05:38:24;97033.84;;;12.91;100.00
72677;BME280;60755;51.374;10.662;2022-10-16T05:40:51;97048.34;;;12.88;100.00
72677;BME280;60755;51.374;10.662;2022-10-16T05:43:18;97049.72;;;12.96;100.00
72677;BME280;60755;51.374;10.662;2022-10-16T05:45:44;97044.22;;;13.02;100.00
72677;BME280;60755;51.374;10.662;2022-10-16T05:48:11;97043.41;;;12.97;100.00
72677;BME280;60755;51.374;10.662;2022-10-16T05:50:37;97048.94;;;12.95;100.00
72677;BME280;60755;51.374;10.662;2022-10-16T05:53:03;97043.41;;;12.97;100.00
72677;BME280;60755;51.374;10.662;2022-10-16T05:55:31;97028.44;;;13.07;100.00
72677;BME280;60755;51.374;10.662;2022-10-16T05:57:58;97022.59;;;13.05;100.00
72677;BME280;60755;51.374;10.662;2022-10-16T06:00:24;97020.19;;;12.94;100.00
72677;BME280;60755;51.374;10.662;2022-10-16T06:02:51;97007.00;;;12.99;100.00
72677;BME280;60755;51.374;10.662;2022-10-16T06:05:17;96999.66;;;13.01;100.00
72677;BME280;60755;51.374;10.662;2022-10-16T06:07:44;96997.00;;;13.01;100.00
72677;BME280;60755;51.374;10.662;2022-10-16T06:10:10;97003.56;;;12.93;100.00
72677;BME280;60755;51.374;10.662;2022-10-16T06:12:38;97025.44;;;12.94;100.00
72677;BME280;60755;51.374;10.662;2022-10-16T06:15:05;97028.09;;;12.99;100.00
72677;BME280;60755;51.374;10.662;2022-10-16T06:17:32;97043.44;;;13.02;100.00
72677;BME280;60755;51.374;10.662;2022-10-16T06:19:58;97064.81;;;13.00;100.00
72677;BME280;60755;51.374;10.662;2022-10-16T06:22:25;97060.28;;;12.96;100.00
72677;BME280;60755;51.374;10.662;2022-10-16T06:24:51;97072.41;;;12.92;100.00
72677;BME280;60755;51.374;10.662;2022-10-16T06:27:18;97079.75;;;12.89;100.00
72677;BME280;60755;51.374;10.662;2022-10-16T06:29:47;97078.22;;;12.99;100.00
72677;BME280;60755;51.374;10.662;2022-10-16T06:32:13;97078.00;;;13.00;100.00
72677;BME280;60755;51.374;10.662;2022-10-16T06:34:40;97090.94;;;13.02;100.00
72677;BME280;60755;51.374;10.662;2022-10-16T06:37:07;97108.50;;;13.23;100.00
72677;BME280;60755;51.374;10.662;2022-10-16T06:39:33;97097.50;;;13.36;100.00
72677;BME280;60755;51.374;10.662;2022-10-16T06:42:00;97096.75;;;13.46;100.00
72677;BME280;60755;51.374;10.662;2022-10-16T06:44:26;97105.50;;;13.52;100.00
72677;BME280;60755;51.374;10.662;2022-10-16T06:46:54;97114.00;;;13.59;100.00
72677;BME280;60755;51.374;10.662;2022-10-16T06:49:20;97121.69;;;13.65;100.00
72677;BME280;60755;51.374;10.662;2022-10-16T06:51:48;97119.84;;;13.71;100.00
72677;BME280;60755;51.374;10.662;2022-10-16T06:54:15;97128.88;;;13.80;100.00
72677;BME280;60755;51.374;10.662;2022-10-16T06:56:43;97127.91;;;14.02;100.00
72677;BME280;60755;51.374;10.662;2022-10-16T06:59:09;97135.34;;;14.15;100.00
72677;BME280;60755;51.374;10.662;2022-10-16T07:01:36;97141.28;;;14.47;100.00
72677;BME280;60755;51.374;10.662;2022-10-16T07:04:03;97131.25;;;14.70;99.17
72677;BME280;60755;51.374;10.662;2022-10-16T07:06:31;97134.97;;;14.84;98.74
72677;BME280;60755;51.374;10.662;2022-10-16T07:09:01;97129.13;;;15.33;96.08
72677;BME280;60755;51.374;10.662;2022-10-16T07:11:28;97138.56;;;15.80;93.49
72677;BME280;60755;51.374;10.662;2022-10-16T07:13:55;97150.63;;;16.11;91.68
72677;BME280;60755;51.374;10.662;2022-10-16T07:16:23;97146.72;;;16.53;89.10
72677;BME280;60755;51.374;10.662;2022-10-16T07:18:50;97158.28;;;16.67;87.08
72677;BME280;60755;51.374;10.662;2022-10-16T07:21:20;97160.00;;;16.53;88.56
72677;BME280;60755;51.374;10.662;2022-10-16T07:23:50;97167.47;;;16.36;86.41
72677;BME280;60755;51.374;10.662;2022-10-16T07:26:16;97180.91;;;16.05;88.83
72677;BME280;60755;51.374;10.662;2022-10-16T07:28:43;97187.59;;;15.77;89.32
72677;BME280;60755;51.374;10.662;2022-10-16T07:31:12;97183.06;;;15.88;88.96
72677;BME280;60755;51.374;10.662;2022-10-16T07:33:40;97182.03;;;15.79;88.54
72677;BME280;60755;51.374;10.662;2022-10-16T07:36:08;97192.09;;;15.77;88.98
72677;BME280;60755;51.374;10.662;2022-10-16T07:38:36;97214.38;;;15.81;87.66
72677;BME280;60755;51.374;10.662;2022-10-16T07:41:05;97213.03;;;15.83;87.89
72677;BME280;60755;51.374;10.662;2022-10-16T07:43:32;97203.72;;;15.91;88.15
72677;BME280;60755;51.374;10.662;2022-10-16T07:45:59;97207.75;;;15.73;88.09
72677;BME280;60755;51.374;10.662;2022-10-16T07:48:27;97211.72;;;15.76;87.05
72677;BME280;60755;51.374;10.662;2022-10-16T07:50:57;97197.69;;;15.70;88.73
72677;BME280;60755;51.374;10.662;2022-10-16T07:53:25;97188.91;;;15.85;86.39
72677;BME280;60755;51.374;10.662;2022-10-16T07:55:57;97181.50;;;15.82;87.01
72677;BME280;60755;51.374;10.662;2022-10-16T07:58:24;97188.94;;;15.70;86.81
72677;BME280;60755;51.374;10.662;2022-10-16T08:00:50;97203.25;;;15.63;87.38
72677;BME280;60755;51.374;10.662;2022-10-16T08:03:17;97193.16;;;15.81;85.70
72677;BME280;60755;51.374;10.662;2022-10-16T08:05:43;97196.31;;;15.93;85.79
72677;BME280;60755;51.374;10.662;2022-10-16T08:08:13;97204.75;;;16.00;85.97
72677;BME280;60755;51.374;10.662;2022-10-16T08:10:40;97213.28;;;15.97;85.07
72677;BME280;60755;51.374;10.662;2022-10-16T08:13:09;97222.56;;;15.89;85.95
72677;BME280;60755;51.374;10.662;2022-10-16T08:15:36;97208.97;;;16.11;85.33
72677;BME280;60755;51.374;10.662;2022-10-16T08:18:04;97213.97;;;16.23;84.20
72677;BME280;60755;51.374;10.662;2022-10-16T08:20:32;97222.22;;;16.11;85.42
72677;BME280;60755;51.374;10.662;2022-10-16T08:22:59;97224.75;;;16.42;82.87
72677;BME280;60755;51.374;10.662;2022-10-16T08:25:26;97233.38;;;16.13;84.45
72677;BME280;60755;51.374;10.662;2022-10-16T08:27:52;97228.59;;;16.10;85.00
72677;BME280;60755;51.374;10.662;2022-10-16T08:30:22;97236.53;;;16.15;84.05
72677;BME280;60755;51.374;10.662;2022-10-16T08:32:49;97238.72;;;15.93;86.10
72677;BME280;60755;51.374;10.662;2022-10-16T08:35:15;97246.69;;;15.78;86.00
72677;BME280;60755;51.374;10.662;2022-10-16T08:37:42;97247.19;;;15.95;86.63
72677;BME280;60755;51.374;10.662;2022-10-16T08:40:16;97242.69;;;15.90;86.60
72677;BME280;60755;51.374;10.662;2022-10-16T08:43:16;97251.69;;;15.94;86.53
72677;BME280;60755;51.374;10.662;2022-10-16T08:46:24;97253.78;;;16.13;85.98
72677;BME280;60755;51.374;10.662;2022-10-16T08:48:54;97255.06;;;16.26;85.73
72677;BME280;60755;51.374;10.662;2022-10-16T08:51:23;97262.16;;;16.45;84.46
72677;BME280;60755;51.374;10.662;2022-10-16T08:53:53;97260.00;;;16.53;83.45
72677;BME280;60755;51.374;10.662;2022-10-16T08:56:21;97260.75;;;16.58;83.50
72677;BME280;60755;51.374;10.662;2022-10-16T08:58:47;97264.66;;;16.81;82.86
72677;BME280;60755;51.374;10.662;2022-10-16T09:01:15;97277.66;;;16.83;82.69
72677;BME280;60755;51.374;10.662;2022-10-16T09:03:56;97284.78;;;16.92;83.08
72677;BME280;60755;51.374;10.662;2022-10-16T09:06:38;97281.09;;;17.32;80.14
72677;BME280;60755;51.374;10.662;2022-10-16T09:09:21;97292.41;;;17.04;81.55
72677;BME280;60755;51.374;10.662;2022-10-16T09:11:57;97292.34;;;17.14;80.79
72677;BME280;60755;51.374;10.662;2022-10-16T09:14:38;97299.81;;;17.07;81.56
72677;BME280;60755;51.374;10.662;2022-10-16T09:17:22;97309.84;;;17.20;80.64
72677;BME280;60755;51.374;10.662;2022-10-16T09:19:56;97320.97;;;17.27;81.13
72677;BME280;60755;51.374;10.662;2022-10-16T09:22:27;97321.41;;;17.00;81.10
72677;BME280;60755;51.374;10.662;2022-10-16T09:24:54;97325.81;;;17.15;81.61
72677;BME280;60755;51.374;10.662;2022-10-16T09:27:21;97320.97;;;17.27;80.84
72677;BME280;60755;51.374;10.662;2022-10-16T09:29:49;97318.69;;;17.05;81.97
72677;BME280;60755;51.374;10.662;2022-10-16T09:32:18;97319.53;;;16.96;81.98
72677;BME280;60755;51.374;10.662;2022-10-16T09:34:48;97322.84;;;16.72;81.57
72677;BME280;60755;51.374;10.662;2022-10-16T09:37:20;97316.72;;;16.67;82.35
72677;BME280;60755;51.374;10.662;2022-10-16T09:39:49;97320.19;;;16.72;82.59
72677;BME280;60755;51.374;10.662;2022-10-16T09:42:17;97313.97;;;16.92;81.25
72677;BME280;60755;51.374;10.662;2022-10-16T09:44:47;97318.38;;;17.17;79.69
72677;BME280;60755;51.374;10.662;2022-10-16T09:47:16;97320.09;;;17.37;79.86
72677;BME280;60755;51.374;10.662;2022-10-16T09:49:50;97322.25;;;17.69;76.99
72677;BME280;60755;51.374;10.662;2022-10-16T09:52:19;97327.28;;;17.37;79.50
72677;BME280;60755;51.374;10.662;2022-10-16T09:54:51;97339.41;;;17.48;79.16
72677;BME280;60755;51.374;10.662;2022-10-16T09:57:18;97336.56;;;17.39;79.80
72677;BME280;60755;51.374;10.662;2022-10-16T09:59:49;97336.41;;;17.25;79.06
72677;BME280;60755;51.374;10.662;2022-10-16T10:02:17;97331.97;;;17.11;80.11
72677;BME280;60755;51.374;10.662;2022-10-16T10:04:48;97343.94;;;17.03;80.42
72677;BME280;60755;51.374;10.662;2022-10-16T10:07:20;97339.31;;;16.69;81.38
72677;BME280;60755;51.374;10.662;2022-10-16T10:09:47;97337.91;;;16.87;81.72
72677;BME280;60755;51.374;10.662;2022-10-16T10:12:19;97342.81;;;17.14;80.27
72677;BME280;60755;51.374;10.662;2022-10-16T10:14:47;97340.06;;;16.80;81.42
72677;BME280;60755;51.374;10.662;2022-10-16T10:17:17;97352.59;;;16.69;81.64
72677;BME280;60755;51.374;10.662;2022-10-16T10:19:52;97342.75;;;16.70;81.85
72677;BME280;60755;51.374;10.662;2022-10-16T10:22:25;97348.81;;;16.81;81.15
72677;BME280;60755;51.374;10.662;2022-10-16T10:24:56;97349.81;;;16.95;81.24
72677;BME280;60755;51.374;10.662;2022-10-16T10:27:26;97344.59;;;16.74;81.05
72677;BME280;60755;51.374;10.662;2022-10-16T10:30:00;97346.69;;;16.83;80.46
72677;BME280;60755;51.374;10.662;2022-10-16T10:32:32;97347.63;;;17.12;80.67
72677;BME280;60755;51.374;10.662;2022-10-16T10:35:14;97354.22;;;17.15;79.56
72677;BME280;60755;51.374;10.662;2022-10-16T10:38:00;97358.97;;;17.23;78.58
72677;BME280;60755;51.374;10.662;2022-10-16T10:40:38;97359.63;;;17.49;77.31
72677;BME280;60755;51.374;10.662;2022-10-16T10:43:11;97353.47;;;17.93;74.79
72677;BME280;60755;51.374;10.662;2022-10-16T10:45:43;97359.41;;;17.84;75.59
72677;BME280;60755;51.374;10.662;2022-10-16T10:48:24;97354.94;;;17.75;75.52
72677;BME280;60755;51.374;10.662;2022-10-16T10:50:57;97358.31;;;17.85;74.83
72677;BME280;60755;51.374;10.662;2022-10-16T10:53:36;97351.00;;;18.01;73.84
72677;BME280;60755;51.374;10.662;2022-10-16T10:56:15;97350.34;;;17.85;74.08
72677;BME280;60755;51.374;10.662;2022-10-16T10:58:57;97354.53;;;18.21;74.60
72677;BME280;60755;51.374;10.662;2022-10-16T11:01:33;97355.28;;;18.26;73.44
72677;BME280;60755;51.374;10.662;2022-10-16T11:04:29;97358.28;;;18.49;72.68
72677;BME280;60755;51.374;10.662;2022-10-16T11:07:02;97349.66;;;18.04;71.55
72677;BME280;60755;51.374;10.662;2022-10-16T11:09:34;97353.50;;;17.87;71.55
72677;BME280;60755;51.374;10.662;2022-10-16T11:12:08;97360.56;;;17.73;71.77
72677;BME280;60755;51.374;10.662;2022-10-16T11:14:40;97359.09;;;17.86;70.74
72677;BME280;60755;51.374;10.662;2022-10-16T11:17:11;97360.75;;;17.82;71.35
72677;BME280;60755;51.374;10.662;2022-10-16T11:19:42;97360.38;;;17.94;71.36
72677;BME280;60755;51.374;10.662;2022-10-16T11:22:16;97370.13;;;17.74;72.33
72677;BME280;60755;51.374;10.662;2022-10-16T11:24:49;97365.31;;;17.76;71.48
72677;BME280;60755;51.374;10.662;2022-10-16T11:27:23;97358.31;;;17.85;71.17
72677;BME280;60755;51.374;10.662;2022-10-16T11:29:56;97358.94;;;17.72;69.61
72677;BME280;60755;51.374;10.662;2022-10-16T11:32:28;97366.59;;;17.79;70.70
72677;BME280;60755;51.374;10.662;2022-10-16T11:35:02;97362.41;;;18.07;71.60
72677;BME280;60755;51.374;10.662;2022-10-16T11:37:36;97357.31;;;18.39;71.17
72677;BME280;60755;51.374;10.662;2022-10-16T11:40:17;97368.56;;;18.31;69.89
72677;BME280;60755;51.374;10.662;2022-10-16T11:42:48;97372.13;;;18.22;69.95
72677;BME280;60755;51.374;10.662;2022-10-16T11:45:24;97371.75;;;18.28;68.42
72677;BME280;60755;51.374;10.662;2022-10-16T11:47:58;97360.59;;;18.31;70.16
72677;BME280;60755;51.374;10.662;2022-10-16T11:50:30;97372.84;;;17.98;70.62
72677;BME280;60755;51.374;10.662;2022-10-16T11:53:01;97360.38;;;17.94;69.70
72677;BME280;60755;51.374;10.662;2022-10-16T11:55:33;97359.38;;;17.89;69.83
72677;BME280;60755;51.374;10.662;2022-10-16T11:58:04;97361.97;;;17.95;70.18
72677;BME280;60755;51.374;10.662;2022-10-16T12:00:38;97360.31;;;17.65;70.84
72677;BME280;60755;51.374;10.662;2022-10-16T12:03:12;97356.81;;;17.69;71.82
72677;BME280;60755;51.374;10.662;2022-10-16T12:05:55;97365.06;;;17.73;69.57
72677;BME280;60755;51.374;10.662;2022-10-16T12:08:25;97363.03;;;17.54;69.12
72677;BME280;60755;51.374;10.662;2022-10-16T12:11:06;97369.13;;;17.60;68.33
72677;BME280;60755;51.374;10.662;2022-10-16T12:13:34;97362.16;;;17.64;69.94
72677;BME280;60755;51.374;10.662;2022-10-16T12:16:06;97365.19;;;17.52;69.64
72677;BME280;60755;51.374;10.662;2022-10-16T12:18:33;97366.47;;;17.55;67.90
72677;BME280;60755;51.374;10.662;2022-10-16T12:21:00;97368.13;;;17.51;68.23
72677;BME280;60755;51.374;10.662;2022-10-16T12:23:31;97366.69;;;17.63;68.48
72677;BME280;60755;51.374;10.662;2022-10-16T12:26:00;97369.13;;;17.55;68.19
72677;BME280;60755;51.374;10.662;2022-10-16T12:28:28;97365.88;;;17.68;70.10
72677;BME280;60755;51.374;10.662;2022-10-16T12:30:57;97366.88;;;17.77;67.40
72677;BME280;60755;51.374;10.662;2022-10-16T12:33:26;97370.91;;;17.70;68.26
72677;BME280;60755;51.374;10.662;2022-10-16T12:35:53;97377.31;;;17.63;68.29
72677;BME280;60755;51.374;10.662;2022-10-16T12:38:21;97367.97;;;17.76;68.46
72677;BME280;60755;51.374;10.662;2022-10-16T12:40:58;97377.50;;;17.82;68.71
72677;BME280;60755;51.374;10.662;2022-10-16T12:43:36;97378.09;;;17.74;69.36
72677;BME280;60755;51.374;10.662;2022-10-16T12:46:05;97382.84;;;17.77;68.93
72677;BME280;60755;51.374;10.662;2022-10-16T12:48:46;97370.00;;;17.89;69.76
72677;BME280;60755;51.374;10.662;2022-10-16T12:51:23;97375.31;;;17.89;69.56
72677;BME280;60755;51.374;10.662;2022-10-16T12:53:58;97368.94;;;17.85;69.73
72677;BME280;60755;51.374;10.662;2022-10-16T12:56:33;97374.03;;;17.82;70.39
72677;BME280;60755;51.374;10.662;2022-10-16T12:59:11;97370.22;;;17.93;68.40